sensor_id;sensor_type;location;lat;lon;timestamp;pressure;altitude;pressure_sealevel;temperature;humidity
43298;BME280;28892;55.640;37.532;2023-06-19T00:00:39;98975.44;;;18.67;37.16
43298;BME280;28892;55.640;37.532;2023-06-19T00:03:44;98968.63;;;18.48;37.16
43298;BME280;28892;55.640;37.532;2023-06-19T00:06:13;98970.88;;;18.39;37.49
43298;BME280;28892;55.640;37.532;2023-06-19T00:12:52;98974.41;;;18.39;37.12
43298;BME280;28892;55.640;37.532;2023-06-19T00:20:00;98968.56;;;18.31;37.39
43298;BME280;28892;55.640;37.532;2023-06-19T00:22:35;98965.16;;;18.35;37.50
43298;BME280;28892;55.640;37.532;2023-06-19T00:29:11;98964.25;;;18.29;37.37
43298;BME280;28892;55.640;37.532;2023-06-19T00:31:41;98971.59;;;18.34;37.34
43298;BME280;28892;55.640;37.532;2023-06-19T00:34:12;98965.38;;;18.17;37.44
43298;BME280;28892;55.640;37.532;2023-06-19T00:37:03;98963.78;;;18.04;37.69
43298;BME280;28892;55.640;37.532;2023-06-19T00:39:29;98972.16;;;18.07;37.68
43298;BME280;28892;55.640;37.532;2023-06-19T00:42:13;98968.09;;;18.05;37.58
43298;BME280;28892;55.640;37.532;2023-06-19T00:44:39;98974.28;;;18.05;37.54
43298;BME280;28892;55.640;37.532;2023-06-19T00:47:05;98964.94;;;17.96;37.56
43298;BME280;28892;55.640;37.532;2023-06-19T00:49:31;98973.44;;;17.93;37.67
43298;BME280;28892;55.640;37.532;2023-06-19T00:51:58;98969.72;;;17.82;37.89
43298;BME280;28892;55.640;37.532;2023-06-19T00:54:31;98964.50;;;17.75;38.02
43298;BME280;28892;55.640;37.532;2023-06-19T00:56:57;98966.25;;;17.69;38.12
43298;BME280;28892;55.640;37.532;2023-06-19T00:59:23;98980.13;;;17.66;38.30
43298;BME280;28892;55.640;37.532;2023-06-19T01:01:49;98963.34;;;17.59;38.48
43298;BME280;28892;55.640;37.532;2023-06-19T01:04:15;98964.50;;;17.75;38.00
43298;BME280;28892;55.640;37.532;2023-06-19T01:06:59;98974.53;;;17.68;38.39
43298;BME280;28892;55.640;37.532;2023-06-19T01:09:41;98973.03;;;17.60;38.47
43298;BME280;28892;55.640;37.532;2023-06-19T01:12:37;98974.66;;;17.73;38.32
43298;BME280;28892;55.640;37.532;2023-06-19T01:15:32;98995.63;;;17.76;38.37
43298;BME280;28892;55.640;37.532;2023-06-19T01:17:59;98976.06;;;17.40;38.79
43298;BME280;28892;55.640;37.532;2023-06-19T01:23:49;98987.38;;;17.42;38.69
43298;BME280;28892;55.640;37.532;2023-06-19T01:26:16;98979.56;;;17.40;39.00
43298;BME280;28892;55.640;37.532;2023-06-19T01:28:44;98969.06;;;17.27;38.92
43298;BME280;28892;55.640;37.532;2023-06-19T01:31:15;98972.09;;;17.30;39.18
43298;BME280;28892;55.640;37.532;2023-06-19T01:33:44;98974.19;;;17.40;39.08
43298;BME280;28892;55.640;37.532;2023-06-19T01:36:19;98970.47;;;17.41;38.71
43298;BME280;28892;55.640;37.532;2023-06-19T01:38:47;98975.13;;;17.34;38.85
43298;BME280;28892;55.640;37.532;2023-06-19T01:41:15;98971.75;;;17.27;39.02
43298;BME280;28892;55.640;37.532;2023-06-19T01:43:42;98976.06;;;17.28;39.02
43298;BME280;28892;55.640;37.532;2023-06-19T01:46:09;98967.53;;;17.31;38.79
43298;BME280;28892;55.640;37.532;2023-06-19T01:48:35;98990.75;;;17.37;38.78
43298;BME280;28892;55.640;37.532;2023-06-19T01:51:27;98987.97;;;17.56;38.61
43298;BME280;28892;55.640;37.532;2023-06-19T01:53:53;98976.41;;;17.31;38.62
43298;BME280;28892;55.640;37.532;2023-06-19T01:56:19;98967.06;;;17.22;38.92
43298;BME280;28892;55.640;37.532;2023-06-19T01:58:48;98974.44;;;17.27;38.82
43298;BME280;28892;55.640;37.532;2023-06-19T02:01:14;98984.06;;;17.16;39.09
43298;BME280;28892;55.640;37.532;2023-06-19T02:03:40;98973.13;;;17.17;38.94
43298;BME280;28892;55.640;37.532;2023-06-19T02:06:06;98968.94;;;17.22;39.08
43298;BME280;28892;55.640;37.532;2023-06-19T02:08:32;98967.66;;;17.12;39.17
43298;BME280;28892;55.640;37.532;2023-06-19T02:11:04;98984.09;;;17.28;39.01
43298;BME280;28892;55.640;37.532;2023-06-19T02:13:45;98985.16;;;17.27;38.57
43298;BME280;28892;55.640;37.532;2023-06-19T02:16:12;98974.63;;;17.01;39.32
43298;BME280;28892;55.640;37.532;2023-06-19T02:18:38;98976.72;;;17.11;39.09
43298;BME280;28892;55.640;37.532;2023-06-19T02:21:05;98973.09;;;17.06;39.18
43298;BME280;28892;55.640;37.532;2023-06-19T02:23:31;98982.44;;;17.15;39.22
43298;BME280;28892;55.640;37.532;2023-06-19T02:26:17;98981.38;;;17.16;39.29
43298;BME280;28892;55.640;37.532;2023-06-19T02:28:46;98974.44;;;17.27;38.74
43298;BME280;28892;55.640;37.532;2023-06-19T02:31:38;98974.41;;;17.15;39.25
43298;BME280;28892;55.640;37.532;2023-06-19T02:34:05;98959.13;;;17.03;39.45
43298;BME280;28892;55.640;37.532;2023-06-19T02:36:31;98971.81;;;16.96;39.90
43298;BME280;28892;55.640;37.532;2023-06-19T02:38:57;98966.59;;;17.01;39.62
43298;BME280;28892;55.640;37.532;2023-06-19T02:45:36;98973.03;;;17.24;39.37
43298;BME280;28892;55.640;37.532;2023-06-19T02:48:08;98969.97;;;17.21;39.38
43298;BME280;28892;55.640;37.532;2023-06-19T02:58:26;98963.34;;;17.23;39.31
43298;BME280;28892;55.640;37.532;2023-06-19T03:00:56;98962.06;;;17.26;39.31
43298;BME280;28892;55.640;37.532;2023-06-19T03:03:55;98973.50;;;17.45;39.29
43298;BME280;28892;55.640;37.532;2023-06-19T03:15:45;98968.25;;;17.38;39.39
43298;BME280;28892;55.640;37.532;2023-06-19T03:18:52;98964.03;;;17.42;39.55
43298;BME280;28892;55.640;37.532;2023-06-19T03:21:54;98977.81;;;17.58;39.53
43298;BME280;28892;55.640;37.532;2023-06-19T03:25:02;98960.31;;;17.43;39.70
43298;BME280;28892;55.640;37.532;2023-06-19T03:27:41;98963.00;;;17.43;39.44
43298;BME280;28892;55.640;37.532;2023-06-19T03:30:45;98978.03;;;17.68;39.21
43298;BME280;28892;55.640;37.532;2023-06-19T03:42:29;98972.09;;;17.54;39.69
43298;BME280;28892;55.640;37.532;2023-06-19T03:44:58;98965.56;;;17.62;39.08
43298;BME280;28892;55.640;37.532;2023-06-19T03:50:07;98965.09;;;17.53;39.44
43298;BME280;28892;55.640;37.532;2023-06-19T03:52:40;98969.38;;;17.66;39.33
43298;BME280;28892;55.640;37.532;2023-06-19T03:55:06;98971.41;;;17.59;39.06
43298;BME280;28892;55.640;37.532;2023-06-19T04:05:12;98976.81;;;17.88;39.62
43298;BME280;28892;55.640;37.532;2023-06-19T04:07:38;98988.72;;;17.92;39.98
43298;BME280;28892;55.640;37.532;2023-06-19T04:10:25;98983.25;;;18.11;40.32
43298;BME280;28892;55.640;37.532;2023-06-19T04:20:28;98978.03;;;18.62;37.78
43298;BME280;28892;55.640;37.532;2023-06-19T04:23:09;98969.72;;;18.64;38.26
43298;BME280;28892;55.640;37.532;2023-06-19T04:25:35;98964.41;;;18.98;36.97
43298;BME280;28892;55.640;37.532;2023-06-19T04:37:05;98988.34;;;19.68;36.72
43298;BME280;28892;55.640;37.532;2023-06-19T04:39:52;98966.41;;;19.99;36.47
43298;BME280;28892;55.640;37.532;2023-06-19T04:42:41;98984.63;;;20.14;35.86
43298;BME280;28892;55.640;37.532;2023-06-19T04:45:36;98973.03;;;20.35;35.58
43298;BME280;28892;55.640;37.532;2023-06-19T04:48:10;98978.88;;;20.55;34.43
43298;BME280;28892;55.640;37.532;2023-06-19T05:26:27;98986.44;;;21.94;30.45
43298;BME280;28892;55.640;37.532;2023-06-19T05:28:53;98982.06;;;21.82;30.09
43298;BME280;28892;55.640;37.532;2023-06-19T05:31:46;98975.59;;;21.88;30.16
43298;BME280;28892;55.640;37.532;2023-06-19T05:34:13;98979.31;;;21.77;30.09
43298;BME280;28892;55.640;37.532;2023-06-19T05:36:39;98970.47;;;21.92;30.05
43298;BME280;28892;55.640;37.532;2023-06-19T05:39:16;98969.47;;;22.14;29.67
43298;BME280;28892;55.640;37.532;2023-06-19T05:42:11;98964.41;;;22.28;29.81
43298;BME280;28892;55.640;37.532;2023-06-19T05:44:53;98972.28;;;22.45;29.57
43298;BME280;28892;55.640;37.532;2023-06-19T05:47:39;98973.13;;;22.51;28.66
43298;BME280;28892;55.640;37.532;2023-06-19T06:00:32;98973.69;;;22.73;28.66
43298;BME280;28892;55.640;37.532;2023-06-19T06:17:59;98960.75;;;23.01;28.42
43298;BME280;28892;55.640;37.532;2023-06-19T10:01:42;98873.50;;;28.89;19.89
43298;BME280;28892;55.640;37.532;2023-06-19T15:35:27;98647.63;;;24.13;24.35
43298;BME280;28892;55.640;37.532;2023-06-19T15:55:16;98640.34;;;24.03;23.21
43298;BME280;28892;55.640;37.532;2023-06-19T16:03:09;98647.44;;;23.99;23.04
43298;BME280;28892;55.640;37.532;2023-06-19T16:06:49;98647.81;;;23.87;23.63
43298;BME280;28892;55.640;37.532;2023-06-19T16:10:14;98655.91;;;23.92;23.62
43298;BME280;28892;55.640;37.532;2023-06-19T16:15:49;98654.94;;;23.78;22.82
43298;BME280;28892;55.640;37.532;2023-06-19T16:18:19;98651.25;;;23.63;22.83
43298;BME280;28892;55.640;37.532;2023-06-19T16:21:13;98655.50;;;23.75;23.37
43298;BME280;28892;55.640;37.532;2023-06-19T16:23:45;98648.06;;;23.56;23.32
43298;BME280;28892;55.640;37.532;2023-06-19T16:34:15;98664.63;;;23.49;23.24
43298;BME280;28892;55.640;37.532;2023-06-19T16:36:52;98667.91;;;23.46;22.77
43298;BME280;28892;55.640;37.532;2023-06-19T16:39:31;98662.03;;;23.28;23.75
43298;BME280;28892;55.640;37.532;2023-06-19T16:42:27;98682.47;;;23.50;23.08
43298;BME280;28892;55.640;37.532;2023-06-19T16:45:02;98665.25;;;23.36;23.56
43298;BME280;28892;55.640;37.532;2023-06-19T16:47:31;98673.69;;;23.29;23.44
43298;BME280;28892;55.640;37.532;2023-06-19T16:49:59;98671.53;;;23.26;23.25
43298;BME280;28892;55.640;37.532;2023-06-19T16:52:28;98673.97;;;23.22;23.56
43298;BME280;28892;55.640;37.532;2023-06-19T16:54:57;98666.13;;;23.21;23.94
43298;BME280;28892;55.640;37.532;2023-06-19T16:57:27;98673.16;;;23.22;23.79
43298;BME280;28892;55.640;37.532;2023-06-19T17:00:01;98665.34;;;23.20;23.78
43298;BME280;28892;55.640;37.532;2023-06-19T17:02:33;98672.41;;;23.11;24.21
43298;BME280;28892;55.640;37.532;2023-06-19T17:04:59;98665.97;;;22.96;24.47
43298;BME280;28892;55.640;37.532;2023-06-19T17:07:25;98667.31;;;22.99;24.32
43298;BME280;28892;55.640;37.532;2023-06-19T17:10:12;98669.22;;;22.98;24.52
43298;BME280;28892;55.640;37.532;2023-06-19T17:12:41;98663.63;;;22.79;24.15
43298;BME280;28892;55.640;37.532;2023-06-19T17:15:41;98671.53;;;23.21;24.39
43298;BME280;28892;55.640;37.532;2023-06-19T17:18:20;98677.09;;;22.95;24.48
43298;BME280;28892;55.640;37.532;2023-06-19T17:21:05;98668.69;;;22.96;24.50
43298;BME280;28892;55.640;37.532;2023-06-19T17:23:41;98674.91;;;22.92;24.38
43298;BME280;28892;55.640;37.532;2023-06-19T17:29:15;98672.81;;;22.83;24.16
43298;BME280;28892;55.640;37.532;2023-06-19T17:31:44;98658.28;;;22.64;24.61
43298;BME280;28892;55.640;37.532;2023-06-19T17:38:02;98671.25;;;22.67;24.52
43298;BME280;28892;55.640;37.532;2023-06-19T17:40:41;98665.88;;;22.62;25.15
43298;BME280;28892;55.640;37.532;2023-06-19T17:43:41;98667.75;;;22.66;24.86
43298;BME280;28892;55.640;37.532;2023-06-19T17:46:11;98679.06;;;22.73;24.93
43298;BME280;28892;55.640;37.532;2023-06-19T17:48:39;98670.75;;;22.54;25.09
43298;BME280;28892;55.640;37.532;2023-06-19T17:51:14;98671.81;;;22.53;25.81
43298;BME280;28892;55.640;37.532;2023-06-19T17:54:26;98676.91;;;22.70;25.24
43298;BME280;28892;55.640;37.532;2023-06-19T17:56:55;98674.78;;;22.46;25.76
43298;BME280;28892;55.640;37.532;2023-06-19T17:59:51;98693.38;;;22.69;25.24
43298;BME280;28892;55.640;37.532;2023-06-19T18:07:12;98693.38;;;22.69;25.54
43298;BME280;28892;55.640;37.532;2023-06-19T18:32:02;98706.69;;;22.39;26.38
43298;BME280;28892;55.640;37.532;2023-06-19T18:34:51;98702.38;;;22.43;26.63
43298;BME280;28892;55.640;37.532;2023-06-19T18:37:22;98705.34;;;22.21;27.60
43298;BME280;28892;55.640;37.532;2023-06-19T18:39:48;98698.63;;;22.03;27.59
43298;BME280;28892;55.640;37.532;2023-06-19T18:42:23;98712.41;;;22.17;28.02
43298;BME280;28892;55.640;37.532;2023-06-19T19:10:20;98696.47;;;21.89;29.42
43298;BME280;28892;55.640;37.532;2023-06-19T19:13:20;98705.38;;;21.85;29.31
43298;BME280;28892;55.640;37.532;2023-06-19T19:15:46;98710.75;;;21.80;29.35
43298;BME280;28892;55.640;37.532;2023-06-19T19:18:12;98694.84;;;21.73;29.46
43298;BME280;28892;55.640;37.532;2023-06-19T19:20:38;98709.66;;;21.70;29.60
43298;BME280;28892;55.640;37.532;2023-06-19T19:23:03;98695.63;;;21.63;29.70
43298;BME280;28892;55.640;37.532;2023-06-19T19:25:29;98688.31;;;21.63;29.80
43298;BME280;28892;55.640;37.532;2023-06-19T19:28:07;98682.63;;;21.60;29.75
43298;BME280;28892;55.640;37.532;2023-06-19T19:30:46;98688.59;;;21.52;30.22
43298;BME280;28892;55.640;37.532;2023-06-19T19:37:51;98692.09;;;21.57;30.04
43298;BME280;28892;55.640;37.532;2023-06-19T19:43:23;98701.78;;;21.53;30.45
43298;BME280;28892;55.640;37.532;2023-06-19T19:45:49;98690.19;;;21.42;30.31
43298;BME280;28892;55.640;37.532;2023-06-19T19:48:15;98700.44;;;21.45;30.53
43298;BME280;28892;55.640;37.532;2023-06-19T20:04:03;98691.28;;;21.57;30.51
43298;BME280;28892;55.640;37.532;2023-06-19T20:06:30;98686.91;;;21.35;31.05
43298;BME280;28892;55.640;37.532;2023-06-19T20:09:20;98688.28;;;21.43;31.44
43298;BME280;28892;55.640;37.532;2023-06-19T20:11:48;98682.84;;;21.22;31.41
43298;BME280;28892;55.640;37.532;2023-06-19T20:14:15;98687.16;;;21.18;31.89
43298;BME280;28892;55.640;37.532;2023-06-19T20:16:41;98689.81;;;21.13;31.80
43298;BME280;28892;55.640;37.532;2023-06-19T20:19:07;98692.50;;;21.07;32.08
43298;BME280;28892;55.640;37.532;2023-06-19T20:21:33;98685.75;;;21.00;32.11
43298;BME280;28892;55.640;37.532;2023-06-19T20:23:59;98690.31;;;20.94;32.36
43298;BME280;28892;55.640;37.532;2023-06-19T20:26:25;98696.25;;;20.96;32.41
43298;BME280;28892;55.640;37.532;2023-06-19T20:28:51;98687.56;;;20.89;32.36
43298;BME280;28892;55.640;37.532;2023-06-19T20:31:29;98696.00;;;21.03;32.43
43298;BME280;28892;55.640;37.532;2023-06-19T20:34:46;98679.53;;;20.94;32.59
43298;BME280;28892;55.640;37.532;2023-06-19T20:37:11;98682.72;;;20.91;33.04
43298;BME280;28892;55.640;37.532;2023-06-19T20:39:37;98677.34;;;20.91;32.76
43298;BME280;28892;55.640;37.532;2023-06-19T20:42:03;98693.56;;;21.01;32.75
43298;BME280;28892;55.640;37.532;2023-06-19T20:44:29;98687.56;;;20.89;32.83
43298;BME280;28892;55.640;37.532;2023-06-19T20:58:05;98681.34;;;20.83;34.01
43298;BME280;28892;55.640;37.532;2023-06-19T21:00:31;98680.16;;;20.63;34.13
43298;BME280;28892;55.640;37.532;2023-06-19T21:03:01;98684.50;;;20.70;34.25
43298;BME280;28892;55.640;37.532;2023-06-19T21:06:33;98688.13;;;20.86;33.38
43298;BME280;28892;55.640;37.532;2023-06-19T21:09:03;98692.56;;;21.28;32.61
43298;BME280;28892;55.640;37.532;2023-06-19T21:11:59;98685.22;;;21.03;33.66
43298;BME280;28892;55.640;37.532;2023-06-19T21:14:25;98677.53;;;20.79;33.96
43298;BME280;28892;55.640;37.532;2023-06-19T21:17:28;98684.34;;;20.87;33.78
43298;BME280;28892;55.640;37.532;2023-06-19T21:20:36;98693.75;;;20.84;33.89
43298;BME280;28892;55.640;37.532;2023-06-19T21:23:48;98693.13;;;20.66;33.74
43298;BME280;28892;55.640;37.532;2023-06-19T21:26:44;98681.53;;;20.66;34.58
43298;BME280;28892;55.640;37.532;2023-06-19T21:33:45;98699.16;;;20.84;33.82
43298;BME280;28892;55.640;37.532;2023-06-19T21:39:29;98685.72;;;20.46;34.91
43298;BME280;28892;55.640;37.532;2023-06-19T21:41:54;98684.41;;;20.49;35.19
43298;BME280;28892;55.640;37.532;2023-06-19T21:44:20;98687.03;;;20.38;35.42
43298;BME280;28892;55.640;37.532;2023-06-19T21:47:10;98682.84;;;20.58;35.04
43298;BME280;28892;55.640;37.532;2023-06-19T21:49:36;98676.19;;;20.28;35.92
43298;BME280;28892;55.640;37.532;2023-06-19T21:52:05;98678.09;;;20.28;35.45
43298;BME280;28892;55.640;37.532;2023-06-19T21:54:31;98678.03;;;20.22;35.48
43298;BME280;28892;55.640;37.532;2023-06-19T21:56:57;98683.72;;;20.26;35.40
43298;BME280;28892;55.640;37.532;2023-06-19T22:06:23;98671.41;;;20.35;35.67
43298;BME280;28892;55.640;37.532;2023-06-19T22:08:55;98677.81;;;20.29;35.71
43298;BME280;28892;55.640;37.532;2023-06-19T22:11:31;98666.75;;;20.26;35.58
43298;BME280;28892;55.640;37.532;2023-06-19T22:18:50;98670.25;;;20.26;35.97
43298;BME280;28892;55.640;37.532;2023-06-19T22:21:16;98662.97;;;20.21;36.11
43298;BME280;28892;55.640;37.532;2023-06-19T22:39:50;98651.81;;;20.07;37.42
43298;BME280;28892;55.640;37.532;2023-06-19T22:42:47;98641.91;;;19.80;37.97
43298;BME280;28892;55.640;37.532;2023-06-19T22:45:27;98642.84;;;19.64;37.43
43298;BME280;28892;55.640;37.532;2023-06-19T22:48:45;98656.69;;;19.78;38.01
43298;BME280;28892;55.640;37.532;2023-06-19T22:51:47;98644.91;;;19.84;37.33
43298;BME280;28892;55.640;37.532;2023-06-19T22:54:13;98651.44;;;19.61;38.03
43298;BME280;28892;55.640;37.532;2023-06-19T22:56:42;98646.31;;;19.59;38.33
43298;BME280;28892;55.640;37.532;2023-06-19T22:59:11;98655.66;;;19.51;37.85
43298;BME280;28892;55.640;37.532;2023-06-19T23:01:40;98644.59;;;19.48;37.79
43298;BME280;28892;55.640;37.532;2023-06-19T23:04:22;98656.00;;;19.60;37.70
43298;BME280;28892;55.640;37.532;2023-06-19T23:07:45;98637.38;;;19.53;37.82
43298;BME280;28892;55.640;37.532;2023-06-19T23:10:13;98643.28;;;19.50;37.73
43298;BME280;28892;55.640;37.532;2023-06-19T23:13:03;98631.19;;;19.53;37.63
43298;BME280;28892;55.640;37.532;2023-06-19T23:15:59;98634.09;;;19.46;37.86
43298;BME280;28892;55.640;37.532;2023-06-19T23:22:23;98634.19;;;19.57;37.76
43298;BME280;28892;55.640;37.532;2023-06-19T23:24:59;98625.31;;;19.56;37.40
43298;BME280;28892;55.640;37.532;2023-06-19T23:30:48;98632.94;;;19.69;37.52
43298;BME280;28892;55.640;37.532;2023-06-19T23:33:26;98618.06;;;19.57;37.70
43298;BME280;28892;55.640;37.532;2023-06-19T23:36:31;98620.56;;;19.68;37.66
43298;BME280;28892;55.640;37.532;2023-06-19T23:39:06;98616.78;;;19.64;37.96
43298;BME280;28892;55.640;37.532;2023-06-19T23:41:57;98631.75;;;19.55;37.89
43298;BME280;28892;55.640;37.532;2023-06-19T23:47:45;98620.56;;;19.68;38.16
43298;BME280;28892;55.640;37.532;2023-06-19T23:50:20;98624.28;;;19.62;37.95
43298;BME280;28892;55.640;37.532;2023-06-19T23:52:48;98618.09;;;19.62;38.10
43298;BME280;28892;55.640;37.532;2023-06-19T23:55:22;98618.53;;;19.53;37.94
43298;BME280;28892;55.640;37.532;2023-06-19T23:58:13;98624.16;;;19.79;37.60
